sensor_id;sensor_type;location;lat;lon;timestamp;temperature;humidity
11784;DHT22;5949;40.386;18.150;2022-09-27T00:01:47;22.20;99.90
11784;DHT22;5949;40.386;18.150;2022-09-27T00:04:14;22.10;99.90
11784;DHT22;5949;40.386;18.150;2022-09-27T00:06:42;22.10;99.90
11784;DHT22;5949;40.386;18.150;2022-09-27T00:09:09;22.10;99.90
11784;DHT22;5949;40.386;18.150;2022-09-27T00:11:38;22.10;99.90
11784;DHT22;5949;40.386;18.150;2022-09-27T00:14:10;22.10;99.90
11784;DHT22;5949;40.386;18.150;2022-09-27T00:16:38;22.10;99.90
11784;DHT22;5949;40.386;18.150;2022-09-27T00:19:10;22.10;99.90
11784;DHT22;5949;40.386;18.150;2022-09-27T00:21:39;22.00;99.90
11784;DHT22;5949;40.386;18.150;2022-09-27T00:24:08;22.00;99.90
11784;DHT22;5949;40.386;18.150;2022-09-27T00:26:37;22.10;99.90
11784;DHT22;5949;40.386;18.150;2022-09-27T00:29:05;22.00;99.90
11784;DHT22;5949;40.386;18.150;2022-09-27T00:31:33;22.00;99.90
11784;DHT22;5949;40.386;18.150;2022-09-27T00:34:02;22.00;99.90
11784;DHT22;5949;40.386;18.150;2022-09-27T00:36:31;21.90;99.90
11784;DHT22;5949;40.386;18.150;2022-09-27T00:39:00;21.90;99.90
11784;DHT22;5949;40.386;18.150;2022-09-27T00:41:29;21.80;99.90
11784;DHT22;5949;40.386;18.150;2022-09-27T00:43:58;21.80;99.90
11784;DHT22;5949;40.386;18.150;2022-09-27T00:46:28;21.80;99.90
11784;DHT22;5949;40.386;18.150;2022-09-27T00:49:05;21.80;99.90
11784;DHT22;5949;40.386;18.150;2022-09-27T00:51:37;21.70;99.90
11784;DHT22;5949;40.386;18.150;2022-09-27T00:54:07;21.70;99.90
11784;DHT22;5949;40.386;18.150;2022-09-27T00:56:36;21.60;99.90
11784;DHT22;5949;40.386;18.150;2022-09-27T00:59:09;21.60;99.90
11784;DHT22;5949;40.386;18.150;2022-09-27T01:01:38;21.60;99.90
11784;DHT22;5949;40.386;18.150;2022-09-27T01:04:08;21.60;99.90
11784;DHT22;5949;40.386;18.150;2022-09-27T01:06:37;21.50;99.90
11784;DHT22;5949;40.386;18.150;2022-09-27T01:09:07;21.50;99.90
11784;DHT22;5949;40.386;18.150;2022-09-27T01:11:41;21.50;99.90
11784;DHT22;5949;40.386;18.150;2022-09-27T01:14:34;21.40;99.90
11784;DHT22;5949;40.386;18.150;2022-09-27T01:17:11;21.50;99.90
11784;DHT22;5949;40.386;18.150;2022-09-27T01:20:14;21.40;99.90
11784;DHT22;5949;40.386;18.150;2022-09-27T01:22:55;21.40;99.90
11784;DHT22;5949;40.386;18.150;2022-09-27T01:25:44;21.40;99.90
11784;DHT22;5949;40.386;18.150;2022-09-27T01:28:20;21.40;99.90
11784;DHT22;5949;40.386;18.150;2022-09-27T01:30:55;21.40;99.90
11784;DHT22;5949;40.386;18.150;2022-09-27T01:33:43;21.30;99.90
11784;DHT22;5949;40.386;18.150;2022-09-27T01:36:25;21.30;99.90
11784;DHT22;5949;40.386;18.150;2022-09-27T01:39:03;21.30;99.90
11784;DHT22;5949;40.386;18.150;2022-09-27T01:41:37;21.30;99.90
11784;DHT22;5949;40.386;18.150;2022-09-27T01:44:12;21.30;99.90
11784;DHT22;5949;40.386;18.150;2022-09-27T01:46:45;21.30;99.90
11784;DHT22;5949;40.386;18.150;2022-09-27T01:49:17;21.30;99.90
11784;DHT22;5949;40.386;18.150;2022-09-27T01:51:48;21.30;99.90
11784;DHT22;5949;40.386;18.150;2022-09-27T01:54:20;21.30;99.90
11784;DHT22;5949;40.386;18.150;2022-09-27T01:56:50;21.30;99.90
11784;DHT22;5949;40.386;18.150;2022-09-27T01:59:23;21.30;99.90
11784;DHT22;5949;40.386;18.150;2022-09-27T02:01:58;21.20;99.90
11784;DHT22;5949;40.386;18.150;2022-09-27T02:04:30;21.10;99.90
11784;DHT22;5949;40.386;18.150;2022-09-27T02:07:03;21.20;99.90
11784;DHT22;5949;40.386;18.150;2022-09-27T02:09:36;21.20;99.90
11784;DHT22;5949;40.386;18.150;2022-09-27T02:12:08;21.30;99.90
11784;DHT22;5949;40.386;18.150;2022-09-27T02:14:41;21.30;99.90
11784;DHT22;5949;40.386;18.150;2022-09-27T02:17:20;21.20;99.90
11784;DHT22;5949;40.386;18.150;2022-09-27T02:19:53;21.30;99.90
11784;DHT22;5949;40.386;18.150;2022-09-27T02:22:29;21.40;99.90
11784;DHT22;5949;40.386;18.150;2022-09-27T02:25:00;21.20;99.90
11784;DHT22;5949;40.386;18.150;2022-09-27T02:27:32;21.20;99.90
11784;DHT22;5949;40.386;18.150;2022-09-27T02:30:03;21.10;99.90
11784;DHT22;5949;40.386;18.150;2022-09-27T02:32:33;21.20;99.90
11784;DHT22;5949;40.386;18.150;2022-09-27T02:35:04;21.30;99.90
11784;DHT22;5949;40.386;18.150;2022-09-27T02:37:33;21.30;99.90
11784;DHT22;5949;40.386;18.150;2022-09-27T02:40:01;21.30;99.90
11784;DHT22;5949;40.386;18.150;2022-09-27T02:42:31;21.20;99.90
11784;DHT22;5949;40.386;18.150;2022-09-27T02:45:00;21.30;99.90
11784;DHT22;5949;40.386;18.150;2022-09-27T02:47:42;21.20;99.90
11784;DHT22;5949;40.386;18.150;2022-09-27T02:50:42;21.20;99.90
11784;DHT22;5949;40.386;18.150;2022-09-27T02:53:19;21.20;99.90
11784;DHT22;5949;40.386;18.150;2022-09-27T02:55:52;21.10;99.90
11784;DHT22;5949;40.386;18.150;2022-09-27T02:58:32;21.10;99.90
11784;DHT22;5949;40.386;18.150;2022-09-27T03:01:03;21.10;99.90
11784;DHT22;5949;40.386;18.150;2022-09-27T03:03:41;21.00;99.90
11784;DHT22;5949;40.386;18.150;2022-09-27T03:06:10;21.10;99.90
11784;DHT22;5949;40.386;18.150;2022-09-27T03:08:39;21.10;99.90
11784;DHT22;5949;40.386;18.150;2022-09-27T03:11:07;21.00;99.90
11784;DHT22;5949;40.386;18.150;2022-09-27T03:13:35;21.00;99.90
11784;DHT22;5949;40.386;18.150;2022-09-27T03:16:04;21.00;99.90
11784;DHT22;5949;40.386;18.150;2022-09-27T03:18:39;21.00;99.90
11784;DHT22;5949;40.386;18.150;2022-09-27T03:21:06;20.90;99.90
11784;DHT22;5949;40.386;18.150;2022-09-27T03:23:35;21.00;99.90
11784;DHT22;5949;40.386;18.150;2022-09-27T03:26:03;21.00;99.90
11784;DHT22;5949;40.386;18.150;2022-09-27T03:28:30;20.90;99.90
11784;DHT22;5949;40.386;18.150;2022-09-27T03:30:57;21.00;99.90
11784;DHT22;5949;40.386;18.150;2022-09-27T03:33:25;20.80;99.90
11784;DHT22;5949;40.386;18.150;2022-09-27T03:35:54;20.70;99.90
11784;DHT22;5949;40.386;18.150;2022-09-27T03:38:21;20.70;99.90
11784;DHT22;5949;40.386;18.150;2022-09-27T03:40:49;20.70;99.90
11784;DHT22;5949;40.386;18.150;2022-09-27T03:43:16;20.70;99.90
11784;DHT22;5949;40.386;18.150;2022-09-27T03:45:44;20.80;99.90
11784;DHT22;5949;40.386;18.150;2022-09-27T03:48:12;20.80;99.90
11784;DHT22;5949;40.386;18.150;2022-09-27T03:50:40;20.90;99.90
11784;DHT22;5949;40.386;18.150;2022-09-27T03:53:09;20.90;99.90
11784;DHT22;5949;40.386;18.150;2022-09-27T03:55:37;20.90;99.90
11784;DHT22;5949;40.386;18.150;2022-09-27T03:58:05;21.00;99.90
11784;DHT22;5949;40.386;18.150;2022-09-27T04:00:32;21.00;99.90
11784;DHT22;5949;40.386;18.150;2022-09-27T04:03:02;21.00;99.90
11784;DHT22;5949;40.386;18.150;2022-09-27T04:05:30;20.90;99.90
11784;DHT22;5949;40.386;18.150;2022-09-27T04:07:57;20.90;99.90
11784;DHT22;5949;40.386;18.150;2022-09-27T04:10:26;20.80;99.90
11784;DHT22;5949;40.386;18.150;2022-09-27T04:12:54;20.90;99.90
11784;DHT22;5949;40.386;18.150;2022-09-27T04:15:22;21.00;99.90
11784;DHT22;5949;40.386;18.150;2022-09-27T04:17:49;21.00;99.90
11784;DHT22;5949;40.386;18.150;2022-09-27T04:20:17;20.90;99.90
11784;DHT22;5949;40.386;18.150;2022-09-27T04:22:45;20.80;99.90
11784;DHT22;5949;40.386;18.150;2022-09-27T04:25:12;20.80;99.90
11784;DHT22;5949;40.386;18.150;2022-09-27T04:27:44;20.90;99.90
11784;DHT22;5949;40.386;18.150;2022-09-27T04:30:13;20.90;99.90
11784;DHT22;5949;40.386;18.150;2022-09-27T04:32:41;20.90;99.90
11784;DHT22;5949;40.386;18.150;2022-09-27T04:35:09;21.00;99.90
11784;DHT22;5949;40.386;18.150;2022-09-27T04:37:59;20.90;99.90
11784;DHT22;5949;40.386;18.150;2022-09-27T04:40:26;21.00;99.90
11784;DHT22;5949;40.386;18.150;2022-09-27T04:42:55;21.00;99.90
11784;DHT22;5949;40.386;18.150;2022-09-27T04:45:30;21.00;99.90
11784;DHT22;5949;40.386;18.150;2022-09-27T04:47:57;21.00;99.90
11784;DHT22;5949;40.386;18.150;2022-09-27T04:50:25;21.10;99.90
11784;DHT22;5949;40.386;18.150;2022-09-27T04:52:53;21.10;99.90
11784;DHT22;5949;40.386;18.150;2022-09-27T04:55:21;21.10;99.90
11784;DHT22;5949;40.386;18.150;2022-09-27T04:57:49;21.10;99.90
11784;DHT22;5949;40.386;18.150;2022-09-27T05:00:18;21.00;99.90
11784;DHT22;5949;40.386;18.150;2022-09-27T05:02:46;20.90;99.90
11784;DHT22;5949;40.386;18.150;2022-09-27T05:05:14;20.80;99.90
11784;DHT22;5949;40.386;18.150;2022-09-27T05:07:42;20.90;99.90
11784;DHT22;5949;40.386;18.150;2022-09-27T05:10:09;21.00;99.90
11784;DHT22;5949;40.386;18.150;2022-09-27T05:12:37;21.10;99.90
11784;DHT22;5949;40.386;18.150;2022-09-27T05:15:05;21.10;99.90
11784;DHT22;5949;40.386;18.150;2022-09-27T05:17:40;21.40;99.90
11784;DHT22;5949;40.386;18.150;2022-09-27T05:20:11;21.40;99.90
11784;DHT22;5949;40.386;18.150;2022-09-27T05:22:39;21.50;99.90
11784;DHT22;5949;40.386;18.150;2022-09-27T05:25:07;21.70;99.90
11784;DHT22;5949;40.386;18.150;2022-09-27T05:27:35;21.70;99.90
11784;DHT22;5949;40.386;18.150;2022-09-27T05:30:03;21.60;99.90
11784;DHT22;5949;40.386;18.150;2022-09-27T05:32:33;21.60;99.90
11784;DHT22;5949;40.386;18.150;2022-09-27T05:35:02;21.60;99.90
11784;DHT22;5949;40.386;18.150;2022-09-27T05:37:30;21.60;99.90
11784;DHT22;5949;40.386;18.150;2022-09-27T05:39:59;21.60;99.90
11784;DHT22;5949;40.386;18.150;2022-09-27T05:42:26;21.60;99.90
11784;DHT22;5949;40.386;18.150;2022-09-27T05:44:54;21.80;99.90
11784;DHT22;5949;40.386;18.150;2022-09-27T05:47:21;22.60;99.90
11784;DHT22;5949;40.386;18.150;2022-09-27T05:49:49;23.30;99.90
11784;DHT22;5949;40.386;18.150;2022-09-27T05:52:18;23.70;99.90
11784;DHT22;5949;40.386;18.150;2022-09-27T05:54:45;24.10;99.90
11784;DHT22;5949;40.386;18.150;2022-09-27T05:57:13;24.10;99.90
11784;DHT22;5949;40.386;18.150;2022-09-27T05:59:40;24.50;99.90
11784;DHT22;5949;40.386;18.150;2022-09-27T06:02:09;24.80;99.90
11784;DHT22;5949;40.386;18.150;2022-09-27T06:04:36;24.70;99.90
11784;DHT22;5949;40.386;18.150;2022-09-27T06:07:04;25.30;99.90
11784;DHT22;5949;40.386;18.150;2022-09-27T06:09:33;25.70;99.90
11784;DHT22;5949;40.386;18.150;2022-09-27T06:12:01;26.10;99.90
11784;DHT22;5949;40.386;18.150;2022-09-27T06:14:28;26.40;99.90
11784;DHT22;5949;40.386;18.150;2022-09-27T06:16:56;26.10;99.90
11784;DHT22;5949;40.386;18.150;2022-09-27T06:19:24;26.00;99.90
11784;DHT22;5949;40.386;18.150;2022-09-27T06:21:51;26.10;99.90
11784;DHT22;5949;40.386;18.150;2022-09-27T06:24:19;26.10;99.90
11784;DHT22;5949;40.386;18.150;2022-09-27T06:26:48;25.40;99.90
11784;DHT22;5949;40.386;18.150;2022-09-27T06:29:15;25.90;99.90
11784;DHT22;5949;40.386;18.150;2022-09-27T06:31:43;25.40;99.90
11784;DHT22;5949;40.386;18.150;2022-09-27T06:34:10;25.20;99.90
11784;DHT22;5949;40.386;18.150;2022-09-27T06:36:38;24.60;99.90
11784;DHT22;5949;40.386;18.150;2022-09-27T06:39:06;24.60;99.90
11784;DHT22;5949;40.386;18.150;2022-09-27T06:41:33;24.90;99.90
11784;DHT22;5949;40.386;18.150;2022-09-27T06:44:03;24.80;99.90
11784;DHT22;5949;40.386;18.150;2022-09-27T06:46:31;25.10;99.90
11784;DHT22;5949;40.386;18.150;2022-09-27T06:48:59;25.50;99.90
11784;DHT22;5949;40.386;18.150;2022-09-27T06:51:26;24.90;99.90
11784;DHT22;5949;40.386;18.150;2022-09-27T06:53:54;25.10;99.90
11784;DHT22;5949;40.386;18.150;2022-09-27T06:56:21;24.80;99.90
11784;DHT22;5949;40.386;18.150;2022-09-27T06:58:49;24.60;99.90
11784;DHT22;5949;40.386;18.150;2022-09-27T07:01:35;24.40;99.90
11784;DHT22;5949;40.386;18.150;2022-09-27T07:04:02;24.50;99.90
11784;DHT22;5949;40.386;18.150;2022-09-27T07:06:30;24.50;99.90
11784;DHT22;5949;40.386;18.150;2022-09-27T07:08:58;24.40;99.90
11784;DHT22;5949;40.386;18.150;2022-09-27T07:11:26;24.80;99.90
11784;DHT22;5949;40.386;18.150;2022-09-27T07:13:53;25.50;99.90
11784;DHT22;5949;40.386;18.150;2022-09-27T07:16:21;26.00;99.90
11784;DHT22;5949;40.386;18.150;2022-09-27T07:18:51;26.50;99.90
11784;DHT22;5949;40.386;18.150;2022-09-27T07:21:18;25.80;99.90
11784;DHT22;5949;40.386;18.150;2022-09-27T07:23:46;26.20;99.90
11784;DHT22;5949;40.386;18.150;2022-09-27T07:26:14;26.60;99.90
11784;DHT22;5949;40.386;18.150;2022-09-27T07:28:49;26.90;99.90
11784;DHT22;5949;40.386;18.150;2022-09-27T07:31:26;27.10;99.90
11784;DHT22;5949;40.386;18.150;2022-09-27T07:33:56;27.20;99.90
11784;DHT22;5949;40.386;18.150;2022-09-27T07:36:23;27.40;99.90
11784;DHT22;5949;40.386;18.150;2022-09-27T07:38:51;27.50;99.90
11784;DHT22;5949;40.386;18.150;2022-09-27T07:41:18;26.80;99.90
11784;DHT22;5949;40.386;18.150;2022-09-27T07:43:46;27.20;99.90
11784;DHT22;5949;40.386;18.150;2022-09-27T07:46:13;27.20;99.90
11784;DHT22;5949;40.386;18.150;2022-09-27T07:48:41;27.50;99.90
11784;DHT22;5949;40.386;18.150;2022-09-27T07:51:10;27.60;99.90
11784;DHT22;5949;40.386;18.150;2022-09-27T07:53:37;27.40;99.90
11784;DHT22;5949;40.386;18.150;2022-09-27T07:56:05;27.20;99.90
11784;DHT22;5949;40.386;18.150;2022-09-27T07:58:33;26.50;99.90
11784;DHT22;5949;40.386;18.150;2022-09-27T08:01:00;26.00;99.90
11784;DHT22;5949;40.386;18.150;2022-09-27T08:03:28;25.70;99.90
11784;DHT22;5949;40.386;18.150;2022-09-27T08:05:56;25.80;99.90
11784;DHT22;5949;40.386;18.150;2022-09-27T08:08:25;26.00;99.90
11784;DHT22;5949;40.386;18.150;2022-09-27T08:10:53;26.40;99.90
11784;DHT22;5949;40.386;18.150;2022-09-27T08:13:21;26.40;99.90
11784;DHT22;5949;40.386;18.150;2022-09-27T08:15:48;26.80;99.90
11784;DHT22;5949;40.386;18.150;2022-09-27T08:18:17;26.90;99.90
11784;DHT22;5949;40.386;18.150;2022-09-27T08:20:46;26.40;99.90
11784;DHT22;5949;40.386;18.150;2022-09-27T08:23:14;26.30;99.90
11784;DHT22;5949;40.386;18.150;2022-09-27T08:25:43;26.70;99.90
11784;DHT22;5949;40.386;18.150;2022-09-27T08:28:10;26.60;99.90
11784;DHT22;5949;40.386;18.150;2022-09-27T08:30:38;26.80;99.90
11784;DHT22;5949;40.386;18.150;2022-09-27T08:33:06;27.00;99.90
11784;DHT22;5949;40.386;18.150;2022-09-27T08:35:33;27.30;99.90
11784;DHT22;5949;40.386;18.150;2022-09-27T08:38:02;27.30;99.90
11784;DHT22;5949;40.386;18.150;2022-09-27T08:40:36;27.20;99.90
11784;DHT22;5949;40.386;18.150;2022-09-27T08:43:12;27.40;99.90
11784;DHT22;5949;40.386;18.150;2022-09-27T08:45:47;27.40;99.90
11784;DHT22;5949;40.386;18.150;2022-09-27T08:48:17;27.50;99.90
11784;DHT22;5949;40.386;18.150;2022-09-27T08:50:45;27.60;99.90
11784;DHT22;5949;40.386;18.150;2022-09-27T08:53:19;27.60;99.90
11784;DHT22;5949;40.386;18.150;2022-09-27T08:55:50;27.50;99.90
11784;DHT22;5949;40.386;18.150;2022-09-27T08:58:25;27.40;99.90
11784;DHT22;5949;40.386;18.150;2022-09-27T09:00:54;27.50;99.90
11784;DHT22;5949;40.386;18.150;2022-09-27T09:03:24;27.40;99.90
11784;DHT22;5949;40.386;18.150;2022-09-27T09:06:07;27.40;99.90
11784;DHT22;5949;40.386;18.150;2022-09-27T09:08:49;27.30;99.90
11784;DHT22;5949;40.386;18.150;2022-09-27T09:11:26;27.30;99.90
11784;DHT22;5949;40.386;18.150;2022-09-27T09:14:30;27.20;99.90
11784;DHT22;5949;40.386;18.150;2022-09-27T09:17:08;27.40;99.90
11784;DHT22;5949;40.386;18.150;2022-09-27T09:19:56;26.80;99.90
11784;DHT22;5949;40.386;18.150;2022-09-27T09:22:47;27.10;99.90
11784;DHT22;5949;40.386;18.150;2022-09-27T09:25:27;27.10;99.90
11784;DHT22;5949;40.386;18.150;2022-09-27T09:28:06;27.10;99.90
11784;DHT22;5949;40.386;18.150;2022-09-27T09:30:48;26.90;99.90
11784;DHT22;5949;40.386;18.150;2022-09-27T09:33:23;27.10;99.90
11784;DHT22;5949;40.386;18.150;2022-09-27T09:35:54;27.20;99.90
11784;DHT22;5949;40.386;18.150;2022-09-27T09:38:34;27.00;99.90
11784;DHT22;5949;40.386;18.150;2022-09-27T09:41:07;27.10;99.90
11784;DHT22;5949;40.386;18.150;2022-09-27T09:43:39;26.90;99.90
11784;DHT22;5949;40.386;18.150;2022-09-27T09:46:15;27.10;99.90
11784;DHT22;5949;40.386;18.150;2022-09-27T09:48:45;27.00;99.90
11784;DHT22;5949;40.386;18.150;2022-09-27T09:51:17;27.10;99.90
11784;DHT22;5949;40.386;18.150;2022-09-27T09:53:52;27.10;99.90
11784;DHT22;5949;40.386;18.150;2022-09-27T09:56:23;27.10;99.90
11784;DHT22;5949;40.386;18.150;2022-09-27T09:58:55;27.20;99.90
11784;DHT22;5949;40.386;18.150;2022-09-27T10:01:27;27.20;99.90
11784;DHT22;5949;40.386;18.150;2022-09-27T10:03:56;27.20;99.90
11784;DHT22;5949;40.386;18.150;2022-09-27T10:06:25;27.30;99.90
11784;DHT22;5949;40.386;18.150;2022-09-27T10:08:53;27.10;99.90
11784;DHT22;5949;40.386;18.150;2022-09-27T10:11:23;27.00;99.90
11784;DHT22;5949;40.386;18.150;2022-09-27T10:13:52;27.00;99.90
11784;DHT22;5949;40.386;18.150;2022-09-27T10:16:21;26.90;99.90
11784;DHT22;5949;40.386;18.150;2022-09-27T10:18:54;27.00;99.90
11784;DHT22;5949;40.386;18.150;2022-09-27T10:21:27;26.80;99.90
11784;DHT22;5949;40.386;18.150;2022-09-27T10:24:11;26.70;99.90
11784;DHT22;5949;40.386;18.150;2022-09-27T10:26:41;26.70;99.90
11784;DHT22;5949;40.386;18.150;2022-09-27T10:29:28;26.60;99.90
11784;DHT22;5949;40.386;18.150;2022-09-27T10:31:56;26.60;99.90
11784;DHT22;5949;40.386;18.150;2022-09-27T10:34:27;26.50;99.90
11784;DHT22;5949;40.386;18.150;2022-09-27T10:37:14;26.50;99.90
11784;DHT22;5949;40.386;18.150;2022-09-27T10:39:44;26.70;99.90
11784;DHT22;5949;40.386;18.150;2022-09-27T10:42:31;26.80;99.90
11784;DHT22;5949;40.386;18.150;2022-09-27T10:45:24;26.90;99.90
11784;DHT22;5949;40.386;18.150;2022-09-27T10:47:53;27.10;99.90
11784;DHT22;5949;40.386;18.150;2022-09-27T10:50:24;27.20;99.90
11784;DHT22;5949;40.386;18.150;2022-09-27T10:53:01;26.90;99.90
11784;DHT22;5949;40.386;18.150;2022-09-27T10:55:32;26.60;99.90
11784;DHT22;5949;40.386;18.150;2022-09-27T10:58:01;26.70;99.90
11784;DHT22;5949;40.386;18.150;2022-09-27T11:00:30;26.60;99.90
11784;DHT22;5949;40.386;18.150;2022-09-27T11:03:01;26.70;99.90
11784;DHT22;5949;40.386;18.150;2022-09-27T11:05:33;26.90;99.90
11784;DHT22;5949;40.386;18.150;2022-09-27T11:08:19;26.80;99.90
11784;DHT22;5949;40.386;18.150;2022-09-27T11:11:01;26.70;99.90
11784;DHT22;5949;40.386;18.150;2022-09-27T11:13:29;26.80;99.90
11784;DHT22;5949;40.386;18.150;2022-09-27T11:16:13;26.80;99.90
11784;DHT22;5949;40.386;18.150;2022-09-27T11:18:52;26.60;99.90
11784;DHT22;5949;40.386;18.150;2022-09-27T11:21:28;26.50;99.90
11784;DHT22;5949;40.386;18.150;2022-09-27T11:24:11;26.60;99.90
11784;DHT22;5949;40.386;18.150;2022-09-27T11:26:52;26.40;99.90
11784;DHT22;5949;40.386;18.150;2022-09-27T11:29:32;26.50;99.90
11784;DHT22;5949;40.386;18.150;2022-09-27T11:32:17;26.50;99.90
11784;DHT22;5949;40.386;18.150;2022-09-27T11:35:04;26.40;99.90
11784;DHT22;5949;40.386;18.150;2022-09-27T11:37:42;26.40;99.90
11784;DHT22;5949;40.386;18.150;2022-09-27T11:40:22;26.50;99.90
11784;DHT22;5949;40.386;18.150;2022-09-27T11:43:32;26.60;99.90
11784;DHT22;5949;40.386;18.150;2022-09-27T11:46:11;26.90;99.90
11784;DHT22;5949;40.386;18.150;2022-09-27T11:49:00;27.00;99.90
11784;DHT22;5949;40.386;18.150;2022-09-27T11:51:45;27.00;99.90
11784;DHT22;5949;40.386;18.150;2022-09-27T11:54:31;27.10;99.90
11784;DHT22;5949;40.386;18.150;2022-09-27T11:57:07;27.10;99.90
11784;DHT22;5949;40.386;18.150;2022-09-27T12:00:02;27.00;99.90
11784;DHT22;5949;40.386;18.150;2022-09-27T12:05:55;27.00;99.90
11784;DHT22;5949;40.386;18.150;2022-09-27T12:08:35;27.10;99.90
11784;DHT22;5949;40.386;18.150;2022-09-27T12:11:13;27.10;99.90
11784;DHT22;5949;40.386;18.150;2022-09-27T12:13:45;27.00;99.90
11784;DHT22;5949;40.386;18.150;2022-09-27T12:16:15;27.10;99.90
11784;DHT22;5949;40.386;18.150;2022-09-27T12:18:44;27.30;99.90
11784;DHT22;5949;40.386;18.150;2022-09-27T12:21:13;27.30;99.90
11784;DHT22;5949;40.386;18.150;2022-09-27T12:23:44;27.30;99.90
11784;DHT22;5949;40.386;18.150;2022-09-27T12:26:17;27.40;99.90
11784;DHT22;5949;40.386;18.150;2022-09-27T12:28:50;27.40;99.90
11784;DHT22;5949;40.386;18.150;2022-09-27T12:31:21;27.30;99.90
11784;DHT22;5949;40.386;18.150;2022-09-27T12:34:03;27.40;99.90
11784;DHT22;5949;40.386;18.150;2022-09-27T12:36:35;27.40;99.90
11784;DHT22;5949;40.386;18.150;2022-09-27T12:39:12;27.40;99.90
11784;DHT22;5949;40.386;18.150;2022-09-27T12:41:47;27.40;99.90
11784;DHT22;5949;40.386;18.150;2022-09-27T12:44:17;27.50;99.90
11784;DHT22;5949;40.386;18.150;2022-09-27T12:46:58;27.40;99.90
11784;DHT22;5949;40.386;18.150;2022-09-27T12:49:37;27.30;99.90
11784;DHT22;5949;40.386;18.150;2022-09-27T12:52:10;27.20;99.90
11784;DHT22;5949;40.386;18.150;2022-09-27T12:54:53;27.30;99.90
11784;DHT22;5949;40.386;18.150;2022-09-27T12:57:33;27.10;99.90
11784;DHT22;5949;40.386;18.150;2022-09-27T13:00:10;27.20;99.90
11784;DHT22;5949;40.386;18.150;2022-09-27T13:03:04;27.10;99.90
11784;DHT22;5949;40.386;18.150;2022-09-27T13:06:05;27.20;99.90
11784;DHT22;5949;40.386;18.150;2022-09-27T13:09:05;27.10;99.90
11784;DHT22;5949;40.386;18.150;2022-09-27T13:11:45;27.20;99.90
11784;DHT22;5949;40.386;18.150;2022-09-27T13:14:17;27.30;99.90
11784;DHT22;5949;40.386;18.150;2022-09-27T13:16:47;27.30;99.90
11784;DHT22;5949;40.386;18.150;2022-09-27T13:19:41;27.30;99.90
11784;DHT22;5949;40.386;18.150;2022-09-27T13:24:52;27.20;99.90
11784;DHT22;5949;40.386;18.150;2022-09-27T13:27:38;27.30;99.90
11784;DHT22;5949;40.386;18.150;2022-09-27T13:33:33;27.40;99.90
11784;DHT22;5949;40.386;18.150;2022-09-27T13:36:27;27.30;99.90
11784;DHT22;5949;40.386;18.150;2022-09-27T13:39:19;27.30;99.90
11784;DHT22;5949;40.386;18.150;2022-09-27T13:42:12;27.40;99.90
11784;DHT22;5949;40.386;18.150;2022-09-27T13:44:59;27.30;97.00
11784;DHT22;5949;40.386;18.150;2022-09-27T13:47:31;27.30;92.20
11784;DHT22;5949;40.386;18.150;2022-09-27T13:50:19;27.30;90.30
11784;DHT22;5949;40.386;18.150;2022-09-27T13:52:57;27.30;91.20
11784;DHT22;5949;40.386;18.150;2022-09-27T13:55:43;27.30;92.60
11784;DHT22;5949;40.386;18.150;2022-09-27T13:58:32;27.30;92.90
11784;DHT22;5949;40.386;18.150;2022-09-27T14:01:03;27.30;93.60
11784;DHT22;5949;40.386;18.150;2022-09-27T14:03:35;27.20;94.10
11784;DHT22;5949;40.386;18.150;2022-09-27T14:06:06;27.20;93.90
11784;DHT22;5949;40.386;18.150;2022-09-27T14:08:37;27.10;92.40
11784;DHT22;5949;40.386;18.150;2022-09-27T14:11:11;27.10;91.20
11784;DHT22;5949;40.386;18.150;2022-09-27T14:13:41;27.10;89.60
11784;DHT22;5949;40.386;18.150;2022-09-27T14:16:14;27.00;87.40
11784;DHT22;5949;40.386;18.150;2022-09-27T14:18:44;27.00;87.30
11784;DHT22;5949;40.386;18.150;2022-09-27T14:21:26;26.90;85.80
11784;DHT22;5949;40.386;18.150;2022-09-27T14:24:22;26.90;86.80
11784;DHT22;5949;40.386;18.150;2022-09-27T14:27:03;26.80;88.20
11784;DHT22;5949;40.386;18.150;2022-09-27T14:29:32;26.80;91.50
11784;DHT22;5949;40.386;18.150;2022-09-27T14:32:04;26.70;92.30
11784;DHT22;5949;40.386;18.150;2022-09-27T14:34:34;26.70;93.40
11784;DHT22;5949;40.386;18.150;2022-09-27T14:37:03;26.50;95.60
11784;DHT22;5949;40.386;18.150;2022-09-27T14:39:53;26.50;94.10
11784;DHT22;5949;40.386;18.150;2022-09-27T14:42:23;26.50;94.50
11784;DHT22;5949;40.386;18.150;2022-09-27T14:44:51;26.60;95.10
11784;DHT22;5949;40.386;18.150;2022-09-27T14:47:21;26.70;94.00
11784;DHT22;5949;40.386;18.150;2022-09-27T14:49:51;26.70;93.90
11784;DHT22;5949;40.386;18.150;2022-09-27T14:52:22;26.70;93.80
11784;DHT22;5949;40.386;18.150;2022-09-27T14:54:57;26.70;94.70
11784;DHT22;5949;40.386;18.150;2022-09-27T14:57:26;26.70;94.60
11784;DHT22;5949;40.386;18.150;2022-09-27T14:59:55;26.60;94.60
11784;DHT22;5949;40.386;18.150;2022-09-27T15:02:25;26.50;94.00
11784;DHT22;5949;40.386;18.150;2022-09-27T15:04:54;26.50;93.90
11784;DHT22;5949;40.386;18.150;2022-09-27T15:07:23;26.50;93.30
11784;DHT22;5949;40.386;18.150;2022-09-27T15:09:51;26.50;92.50
11784;DHT22;5949;40.386;18.150;2022-09-27T15:12:23;26.50;92.60
11784;DHT22;5949;40.386;18.150;2022-09-27T15:14:53;26.50;92.20
11784;DHT22;5949;40.386;18.150;2022-09-27T15:17:23;26.40;92.50
11784;DHT22;5949;40.386;18.150;2022-09-27T15:20:02;26.50;92.90
11784;DHT22;5949;40.386;18.150;2022-09-27T15:22:40;26.40;93.40
11784;DHT22;5949;40.386;18.150;2022-09-27T15:25:17;26.30;92.80
11784;DHT22;5949;40.386;18.150;2022-09-27T15:27:51;26.30;93.10
11784;DHT22;5949;40.386;18.150;2022-09-27T15:30:23;26.20;92.60
11784;DHT22;5949;40.386;18.150;2022-09-27T15:32:53;26.30;93.20
11784;DHT22;5949;40.386;18.150;2022-09-27T15:35:25;26.20;93.30
11784;DHT22;5949;40.386;18.150;2022-09-27T15:38:12;26.10;93.40
11784;DHT22;5949;40.386;18.150;2022-09-27T15:41:11;26.00;93.10
11784;DHT22;5949;40.386;18.150;2022-09-27T15:43:44;26.00;93.30
11784;DHT22;5949;40.386;18.150;2022-09-27T15:46:27;25.90;93.60
11784;DHT22;5949;40.386;18.150;2022-09-27T15:49:29;25.90;94.00
11784;DHT22;5949;40.386;18.150;2022-09-27T15:51:59;25.80;94.80
11784;DHT22;5949;40.386;18.150;2022-09-27T15:54:30;25.70;95.60
11784;DHT22;5949;40.386;18.150;2022-09-27T15:57:02;25.70;96.20
11784;DHT22;5949;40.386;18.150;2022-09-27T15:59:32;25.60;96.50
11784;DHT22;5949;40.386;18.150;2022-09-27T16:02:01;25.60;96.10
11784;DHT22;5949;40.386;18.150;2022-09-27T16:04:31;25.50;96.20
11784;DHT22;5949;40.386;18.150;2022-09-27T16:06:59;25.50;96.80
11784;DHT22;5949;40.386;18.150;2022-09-27T16:09:29;25.40;97.50
11784;DHT22;5949;40.386;18.150;2022-09-27T16:11:57;25.40;98.50
11784;DHT22;5949;40.386;18.150;2022-09-27T16:14:24;25.40;99.60
11784;DHT22;5949;40.386;18.150;2022-09-27T16:16:54;25.30;99.90